sensor_id;sensor_type;location;lat;lon;timestamp;pressure;altitude;pressure_sealevel;temperature;humidity
8101;BME280;4093;53.470;9.832;2023-05-19T00:01:30;102813.97;;;9.78;69.37
8101;BME280;4093;53.470;9.832;2023-05-19T00:03:58;102798.78;;;8.74;73.39
8101;BME280;4093;53.470;9.832;2023-05-19T00:06:29;102819.78;;;8.89;75.07
8101;BME280;4093;53.470;9.832;2023-05-19T00:09:00;102815.25;;;8.79;75.32
8101;BME280;4093;53.470;9.832;2023-05-19T00:11:28;102823.41;;;9.35;70.74
8101;BME280;4093;53.470;9.832;2023-05-19T00:13:57;102824.31;;;9.37;71.03
8101;BME280;4093;53.470;9.832;2023-05-19T00:16:28;102801.63;;;8.85;73.39
8101;BME280;4093;53.470;9.832;2023-05-19T00:18:56;102827.00;;;9.02;72.63
8101;BME280;4093;53.470;9.832;2023-05-19T00:21:25;102826.16;;;9.05;71.54
8101;BME280;4093;53.470;9.832;2023-05-19T00:23:53;102823.72;;;9.50;69.47
8101;BME280;4093;53.470;9.832;2023-05-19T00:26:22;102807.09;;;8.98;71.76
8101;BME280;4093;53.470;9.832;2023-05-19T00:28:49;102824.38;;;9.40;71.82
8101;BME280;4093;53.470;9.832;2023-05-19T00:31:17;102808.44;;;9.20;71.26
8101;BME280;4093;53.470;9.832;2023-05-19T00:33:47;102812.13;;;8.92;73.10
8101;BME280;4093;53.470;9.832;2023-05-19T00:36:14;102807.38;;;8.73;73.48
8101;BME280;4093;53.470;9.832;2023-05-19T00:38:42;102811.81;;;8.78;73.58
8101;BME280;4093;53.470;9.832;2023-05-19T00:41:10;102812.53;;;9.11;72.10
8101;BME280;4093;53.470;9.832;2023-05-19T00:43:38;102785.72;;;8.31;74.88
8101;BME280;4093;53.470;9.832;2023-05-19T00:46:05;102811.09;;;8.84;73.51
8101;BME280;4093;53.470;9.832;2023-05-19T00:48:33;102799.00;;;8.83;73.72
8101;BME280;4093;53.470;9.832;2023-05-19T00:51:02;102804.88;;;8.76;74.02
8101;BME280;4093;53.470;9.832;2023-05-19T00:53:33;102810.59;;;9.00;72.70
8101;BME280;4093;53.470;9.832;2023-05-19T00:56:01;102808.50;;;9.23;71.15
8101;BME280;4093;53.470;9.832;2023-05-19T00:58:30;102800.75;;;9.22;71.21
8101;BME280;4093;53.470;9.832;2023-05-19T01:00:58;102801.22;;;9.06;71.76
8101;BME280;4093;53.470;9.832;2023-05-19T01:03:30;102806.78;;;9.22;71.04
8101;BME280;4093;53.470;9.832;2023-05-19T01:06:02;102808.69;;;9.31;71.92
8101;BME280;4093;53.470;9.832;2023-05-19T01:08:31;102799.78;;;9.17;70.76
8101;BME280;4093;53.470;9.832;2023-05-19T01:10:59;102801.28;;;9.09;71.10
8101;BME280;4093;53.470;9.832;2023-05-19T01:13:27;102783.44;;;9.18;71.31
8101;BME280;4093;53.470;9.832;2023-05-19T01:15:59;102790.44;;;8.84;71.72
8101;BME280;4093;53.470;9.832;2023-05-19T01:18:36;102784.91;;;8.34;75.39
8101;BME280;4093;53.470;9.832;2023-05-19T01:21:37;102808.25;;;8.73;73.42
8101;BME280;4093;53.470;9.832;2023-05-19T01:24:23;102802.28;;;8.76;74.14
8101;BME280;4093;53.470;9.832;2023-05-19T01:27:22;102781.94;;;8.19;75.46
8101;BME280;4093;53.470;9.832;2023-05-19T01:30:29;102785.00;;;8.04;76.25
8101;BME280;4093;53.470;9.832;2023-05-19T01:33:02;102793.50;;;8.01;75.88
8101;BME280;4093;53.470;9.832;2023-05-19T01:35:34;102797.63;;;7.95;77.20
8101;BME280;4093;53.470;9.832;2023-05-19T01:38:03;102814.03;;;8.65;74.11
8101;BME280;4093;53.470;9.832;2023-05-19T01:40:32;102787.16;;;8.91;72.28
8101;BME280;4093;53.470;9.832;2023-05-19T01:43:00;102806.53;;;9.12;71.46
8101;BME280;4093;53.470;9.832;2023-05-19T01:45:31;102806.00;;;9.26;72.01
8101;BME280;4093;53.470;9.832;2023-05-19T01:48:01;102791.63;;;8.98;71.03
8101;BME280;4093;53.470;9.832;2023-05-19T01:50:30;102800.56;;;9.13;72.88
8101;BME280;4093;53.470;9.832;2023-05-19T01:53:00;102807.34;;;9.09;71.22
8101;BME280;4093;53.470;9.832;2023-05-19T01:55:28;102800.56;;;9.14;72.48
8101;BME280;4093;53.470;9.832;2023-05-19T01:58:02;102805.66;;;9.10;71.40
8101;BME280;4093;53.470;9.832;2023-05-19T02:00:43;102803.06;;;9.10;71.88
8101;BME280;4093;53.470;9.832;2023-05-19T02:03:25;102820.03;;;9.39;72.73
8101;BME280;4093;53.470;9.832;2023-05-19T02:06:01;102795.81;;;8.93;72.13
8101;BME280;4093;53.470;9.832;2023-05-19T02:08:39;102801.22;;;8.68;74.56
8101;BME280;4093;53.470;9.832;2023-05-19T02:11:12;102788.50;;;8.39;74.28
8101;BME280;4093;53.470;9.832;2023-05-19T02:13:43;102785.28;;;8.48;74.64
8101;BME280;4093;53.470;9.832;2023-05-19T02:16:13;102810.25;;;8.85;74.92
8101;BME280;4093;53.470;9.832;2023-05-19T02:18:44;102804.53;;;8.98;72.94
8101;BME280;4093;53.470;9.832;2023-05-19T02:21:13;102806.19;;;9.34;71.38
8101;BME280;4093;53.470;9.832;2023-05-19T02:23:41;102795.34;;;9.11;72.98
8101;BME280;4093;53.470;9.832;2023-05-19T02:26:09;102793.69;;;9.15;72.48
8101;BME280;4093;53.470;9.832;2023-05-19T02:28:36;102787.72;;;9.17;71.19
8101;BME280;4093;53.470;9.832;2023-05-19T02:31:04;102790.88;;;9.43;70.04
8101;BME280;4093;53.470;9.832;2023-05-19T02:33:35;102791.09;;;9.56;70.44
8101;BME280;4093;53.470;9.832;2023-05-19T02:36:04;102777.44;;;9.61;70.65
8101;BME280;4093;53.470;9.832;2023-05-19T02:38:31;102783.53;;;9.65;69.73
8101;BME280;4093;53.470;9.832;2023-05-19T02:40:59;102768.63;;;9.50;70.63
8101;BME280;4093;53.470;9.832;2023-05-19T02:43:27;102784.63;;;9.76;70.09
8101;BME280;4093;53.470;9.832;2023-05-19T02:45:56;102760.28;;;9.65;70.32
8101;BME280;4093;53.470;9.832;2023-05-19T02:48:23;102780.31;;;9.75;70.72
8101;BME280;4093;53.470;9.832;2023-05-19T02:50:52;102782.28;;;9.90;70.99
8101;BME280;4093;53.470;9.832;2023-05-19T02:53:20;102771.81;;;9.82;70.73
8101;BME280;4093;53.470;9.832;2023-05-19T02:55:48;102778.78;;;9.86;70.30
8101;BME280;4093;53.470;9.832;2023-05-19T02:58:15;102780.53;;;9.87;71.42
8101;BME280;4093;53.470;9.832;2023-05-19T03:00:44;102774.75;;;10.02;70.83
8101;BME280;4093;53.470;9.832;2023-05-19T03:03:11;102774.81;;;10.04;71.04
8101;BME280;4093;53.470;9.832;2023-05-19T03:05:40;102784.44;;;10.14;71.33
8101;BME280;4093;53.470;9.832;2023-05-19T03:08:09;102773.31;;;10.16;70.88
8101;BME280;4093;53.470;9.832;2023-05-19T03:10:37;102767.31;;;10.20;71.69
8101;BME280;4093;53.470;9.832;2023-05-19T03:13:05;102768.78;;;10.05;72.30
8101;BME280;4093;53.470;9.832;2023-05-19T03:15:32;102771.81;;;10.29;72.06
8101;BME280;4093;53.470;9.832;2023-05-19T03:18:02;102756.72;;;10.05;72.98
8101;BME280;4093;53.470;9.832;2023-05-19T03:20:29;102767.56;;;10.31;70.76
8101;BME280;4093;53.470;9.832;2023-05-19T03:22:57;102761.75;;;10.46;70.97
8101;BME280;4093;53.470;9.832;2023-05-19T03:25:26;102753.22;;;10.52;70.24
8101;BME280;4093;53.470;9.832;2023-05-19T03:27:55;102754.94;;;10.53;70.58
8101;BME280;4093;53.470;9.832;2023-05-19T03:30:23;102743.13;;;10.69;70.63
8101;BME280;4093;53.470;9.832;2023-05-19T03:32:50;102750.91;;;10.70;70.23
8101;BME280;4093;53.470;9.832;2023-05-19T03:35:18;102747.41;;;10.67;71.65
8101;BME280;4093;53.470;9.832;2023-05-19T03:37:46;102751.00;;;10.76;72.08
8101;BME280;4093;53.470;9.832;2023-05-19T03:40:14;102732.06;;;10.80;70.94
8101;BME280;4093;53.470;9.832;2023-05-19T03:42:45;102760.84;;;11.02;71.19
8101;BME280;4093;53.470;9.832;2023-05-19T03:45:13;102751.38;;;11.04;70.27
8101;BME280;4093;53.470;9.832;2023-05-19T03:47:41;102752.22;;;11.03;70.92
8101;BME280;4093;53.470;9.832;2023-05-19T03:50:09;102753.31;;;11.20;71.44
8101;BME280;4093;53.470;9.832;2023-05-19T03:52:37;102751.22;;;10.92;72.98
8101;BME280;4093;53.470;9.832;2023-05-19T03:55:06;102755.66;;;11.02;72.98
8101;BME280;4093;53.470;9.832;2023-05-19T03:57:34;102755.50;;;10.89;74.37
8101;BME280;4093;53.470;9.832;2023-05-19T04:00:04;102759.88;;;10.94;73.90
8101;BME280;4093;53.470;9.832;2023-05-19T04:02:32;102759.53;;;10.69;76.24
8101;BME280;4093;53.470;9.832;2023-05-19T04:05:00;102776.41;;;11.03;75.25
8101;BME280;4093;53.470;9.832;2023-05-19T04:07:30;102773.25;;;11.27;75.26
8101;BME280;4093;53.470;9.832;2023-05-19T04:09:58;102785.75;;;11.61;72.66
8101;BME280;4093;53.470;9.832;2023-05-19T04:12:25;102764.56;;;11.22;74.59
8101;BME280;4093;53.470;9.832;2023-05-19T04:14:53;102779.66;;;11.58;74.17
8101;BME280;4093;53.470;9.832;2023-05-19T04:17:22;102771.06;;;11.60;74.13
8101;BME280;4093;53.470;9.832;2023-05-19T04:19:51;102777.31;;;11.80;74.38
8101;BME280;4093;53.470;9.832;2023-05-19T04:22:19;102781.75;;;11.86;74.60
8101;BME280;4093;53.470;9.832;2023-05-19T04:24:47;102770.38;;;11.76;73.86
8101;BME280;4093;53.470;9.832;2023-05-19T04:27:16;102776.00;;;12.22;72.75
8101;BME280;4093;53.470;9.832;2023-05-19T04:29:43;102781.44;;;12.48;71.04
8101;BME280;4093;53.470;9.832;2023-05-19T04:32:13;102770.16;;;12.41;71.37
8101;BME280;4093;53.470;9.832;2023-05-19T04:34:44;102777.25;;;12.71;70.87
8101;BME280;4093;53.470;9.832;2023-05-19T04:37:12;102774.66;;;12.70;71.27
8101;BME280;4093;53.470;9.832;2023-05-19T04:39:41;102752.63;;;12.13;72.31
8101;BME280;4093;53.470;9.832;2023-05-19T04:42:10;102763.19;;;12.36;72.40
8101;BME280;4093;53.470;9.832;2023-05-19T04:44:38;102772.91;;;12.64;71.44
8101;BME280;4093;53.470;9.832;2023-05-19T04:47:06;102775.59;;;12.80;70.35
8101;BME280;4093;53.470;9.832;2023-05-19T04:49:34;102752.66;;;12.17;72.38
8101;BME280;4093;53.470;9.832;2023-05-19T04:52:07;102773.56;;;12.39;73.09
8101;BME280;4093;53.470;9.832;2023-05-19T04:54:37;102774.44;;;11.54;77.03
8101;BME280;4093;53.470;9.832;2023-05-19T04:57:05;102771.00;;;12.42;72.66
8101;BME280;4093;53.470;9.832;2023-05-19T04:59:33;102776.47;;;12.85;71.91
8101;BME280;4093;53.470;9.832;2023-05-19T05:02:00;102772.91;;;12.64;72.09
8101;BME280;4093;53.470;9.832;2023-05-19T05:04:29;102768.38;;;12.39;73.18
8101;BME280;4093;53.470;9.832;2023-05-19T05:06:57;102783.34;;;12.73;72.85
8101;BME280;4093;53.470;9.832;2023-05-19T05:09:26;102777.78;;;13.70;69.54
8101;BME280;4093;53.470;9.832;2023-05-19T05:11:55;102782.97;;;13.88;68.28
8101;BME280;4093;53.470;9.832;2023-05-19T05:14:23;102768.25;;;14.80;66.34
8101;BME280;4093;53.470;9.832;2023-05-19T05:16:51;102765.28;;;12.92;71.66
8101;BME280;4093;53.470;9.832;2023-05-19T05:19:20;102751.63;;;13.27;69.79
8101;BME280;4093;53.470;9.832;2023-05-19T05:21:49;102759.22;;;12.93;71.51
8101;BME280;4093;53.470;9.832;2023-05-19T05:24:18;102752.22;;;12.81;72.79
8101;BME280;4093;53.470;9.832;2023-05-19T05:26:47;102764.53;;;13.14;73.19
8101;BME280;4093;53.470;9.832;2023-05-19T05:29:15;102763.31;;;12.54;74.32
8101;BME280;4093;53.470;9.832;2023-05-19T05:31:43;102767.94;;;13.01;72.95
8101;BME280;4093;53.470;9.832;2023-05-19T05:34:10;102768.81;;;13.09;73.39
8101;BME280;4093;53.470;9.832;2023-05-19T05:36:38;102762.63;;;12.80;73.69
8101;BME280;4093;53.470;9.832;2023-05-19T05:39:06;102767.69;;;12.66;73.74
8101;BME280;4093;53.470;9.832;2023-05-19T05:41:34;102767.81;;;12.81;73.22
8101;BME280;4093;53.470;9.832;2023-05-19T05:44:04;102762.97;;;12.11;76.77
8101;BME280;4093;53.470;9.832;2023-05-19T05:46:31;102769.19;;;12.29;75.13
8101;BME280;4093;53.470;9.832;2023-05-19T05:49:00;102784.91;;;12.53;76.61
8101;BME280;4093;53.470;9.832;2023-05-19T05:51:28;102773.66;;;12.49;75.10
8101;BME280;4093;53.470;9.832;2023-05-19T05:53:59;102786.22;;;13.23;72.99
8101;BME280;4093;53.470;9.832;2023-05-19T05:56:28;102779.06;;;12.79;74.78
8101;BME280;4093;53.470;9.832;2023-05-19T05:58:55;102775.34;;;12.44;75.86
8101;BME280;4093;53.470;9.832;2023-05-19T06:01:25;102788.97;;;13.59;71.96
8101;BME280;4093;53.470;9.832;2023-05-19T06:03:53;102773.28;;;13.27;71.95
8101;BME280;4093;53.470;9.832;2023-05-19T06:06:21;102772.63;;;14.12;69.60
8101;BME280;4093;53.470;9.832;2023-05-19T06:08:48;102769.16;;;14.20;69.54
8101;BME280;4093;53.470;9.832;2023-05-19T06:11:16;102775.22;;;14.02;69.45
8101;BME280;4093;53.470;9.832;2023-05-19T06:13:45;102777.78;;;13.79;71.22
8101;BME280;4093;53.470;9.832;2023-05-19T06:16:12;102770.47;;;12.92;71.88
8101;BME280;4093;53.470;9.832;2023-05-19T06:18:41;102781.00;;;13.13;72.91
8101;BME280;4093;53.470;9.832;2023-05-19T06:21:09;102779.56;;;14.09;70.17
8101;BME280;4093;53.470;9.832;2023-05-19T06:23:38;102783.88;;;14.76;67.63
8101;BME280;4093;53.470;9.832;2023-05-19T06:26:06;102763.94;;;14.21;68.44
8101;BME280;4093;53.470;9.832;2023-05-19T06:28:34;102763.78;;;13.40;71.29
8101;BME280;4093;53.470;9.832;2023-05-19T06:31:01;102781.31;;;14.21;69.34
8101;BME280;4093;53.470;9.832;2023-05-19T06:33:29;102764.81;;;14.57;67.26
8101;BME280;4093;53.470;9.832;2023-05-19T06:35:58;102761.34;;;14.04;68.39
8101;BME280;4093;53.470;9.832;2023-05-19T06:38:26;102773.25;;;15.45;64.38
8101;BME280;4093;53.470;9.832;2023-05-19T06:40:54;102763.66;;;15.55;64.57
8101;BME280;4093;53.470;9.832;2023-05-19T06:43:22;102768.75;;;16.82;60.63
8101;BME280;4093;53.470;9.832;2023-05-19T06:45:51;102761.75;;;17.54;58.05
8101;BME280;4093;53.470;9.832;2023-05-19T06:48:18;102755.09;;;16.51;60.48
8101;BME280;4093;53.470;9.832;2023-05-19T06:50:46;102767.25;;;17.35;59.13
8101;BME280;4093;53.470;9.832;2023-05-19T06:53:15;102761.19;;;19.77;51.92
8101;BME280;4093;53.470;9.832;2023-05-19T06:55:43;102754.00;;;22.03;47.32
8101;BME280;4093;53.470;9.832;2023-05-19T06:58:24;102743.78;;;18.44;53.74
8101;BME280;4093;53.470;9.832;2023-05-19T07:00:52;102755.44;;;21.29;49.82
8101;BME280;4093;53.470;9.832;2023-05-19T07:03:20;102747.69;;;22.59;47.02
8101;BME280;4093;53.470;9.832;2023-05-19T07:05:49;102730.94;;;21.83;46.86
8101;BME280;4093;53.470;9.832;2023-05-19T07:08:18;102722.94;;;21.00;47.75
8101;BME280;4093;53.470;9.832;2023-05-19T07:10:45;102731.16;;;21.49;48.98
8101;BME280;4093;53.470;9.832;2023-05-19T07:13:13;102722.88;;;22.41;45.46
8101;BME280;4093;53.470;9.832;2023-05-19T07:15:41;102715.34;;;19.92;48.56
8101;BME280;4093;53.470;9.832;2023-05-19T07:18:09;102731.19;;;17.57;53.80
8101;BME280;4093;53.470;9.832;2023-05-19T07:20:37;102728.13;;;17.26;55.79
8101;BME280;4093;53.470;9.832;2023-05-19T07:23:04;102733.94;;;17.50;54.35
8101;BME280;4093;53.470;9.832;2023-05-19T07:25:33;102733.91;;;19.45;51.63
8101;BME280;4093;53.470;9.832;2023-05-19T07:28:01;102730.41;;;19.04;51.82
8101;BME280;4093;53.470;9.832;2023-05-19T07:30:29;102729.03;;;18.86;51.59
8101;BME280;4093;53.470;9.832;2023-05-19T07:32:57;102730.88;;;17.19;55.79
8101;BME280;4093;53.470;9.832;2023-05-19T07:35:25;102722.97;;;19.63;51.24
8101;BME280;4093;53.470;9.832;2023-05-19T07:37:53;102735.59;;;18.61;51.59
8101;BME280;4093;53.470;9.832;2023-05-19T07:40:20;102737.78;;;18.85;52.14
8101;BME280;4093;53.470;9.832;2023-05-19T07:42:49;102734.53;;;18.74;52.41
8101;BME280;4093;53.470;9.832;2023-05-19T07:45:18;102727.75;;;18.61;51.83
8101;BME280;4093;53.470;9.832;2023-05-19T07:47:46;102712.78;;;21.47;45.95
8101;BME280;4093;53.470;9.832;2023-05-19T07:50:14;102705.59;;;20.31;47.54
8101;BME280;4093;53.470;9.832;2023-05-19T07:52:42;102717.03;;;18.26;52.74
8101;BME280;4093;53.470;9.832;2023-05-19T07:55:10;102718.66;;;18.34;52.19
8101;BME280;4093;53.470;9.832;2023-05-19T07:57:38;102722.22;;;17.77;53.36
8101;BME280;4093;53.470;9.832;2023-05-19T08:00:09;102717.22;;;20.21;50.62
8101;BME280;4093;53.470;9.832;2023-05-19T08:02:37;102706.84;;;19.80;49.55
8101;BME280;4093;53.470;9.832;2023-05-19T08:05:06;102711.06;;;22.00;47.75
8101;BME280;4093;53.470;9.832;2023-05-19T08:07:34;102715.59;;;19.42;50.45
8101;BME280;4093;53.470;9.832;2023-05-19T08:10:02;102711.88;;;19.13;50.32
8101;BME280;4093;53.470;9.832;2023-05-19T08:12:30;102714.81;;;20.13;48.07
8101;BME280;4093;53.470;9.832;2023-05-19T08:14:58;102726.00;;;19.06;51.44
8101;BME280;4093;53.470;9.832;2023-05-19T08:17:28;102730.28;;;17.60;54.70
8101;BME280;4093;53.470;9.832;2023-05-19T08:19:56;102716.75;;;18.42;53.01
8101;BME280;4093;53.470;9.832;2023-05-19T08:22:24;102713.91;;;21.67;47.36
8101;BME280;4093;53.470;9.832;2023-05-19T08:24:52;102700.41;;;22.78;43.54
8101;BME280;4093;53.470;9.832;2023-05-19T08:27:19;102711.88;;;22.77;44.61
8101;BME280;4093;53.470;9.832;2023-05-19T08:29:47;102701.81;;;22.39;45.45
8101;BME280;4093;53.470;9.832;2023-05-19T08:32:15;102697.94;;;19.87;49.19
8101;BME280;4093;53.470;9.832;2023-05-19T08:34:44;102688.47;;;22.44;44.19
8101;BME280;4093;53.470;9.832;2023-05-19T08:37:12;102688.38;;;21.95;45.36
8101;BME280;4093;53.470;9.832;2023-05-19T08:39:40;102681.38;;;21.68;46.26
8101;BME280;4093;53.470;9.832;2023-05-19T08:42:07;102694.63;;;19.79;50.39
8101;BME280;4093;53.470;9.832;2023-05-19T08:44:36;102688.56;;;20.44;49.69
8101;BME280;4093;53.470;9.832;2023-05-19T08:47:06;102685.13;;;19.75;49.66
8101;BME280;4093;53.470;9.832;2023-05-19T08:49:43;102690.69;;;19.60;51.37
8101;BME280;4093;53.470;9.832;2023-05-19T08:52:20;102637.75;;;18.18;53.79
8101;BME280;4093;53.470;9.832;2023-05-19T08:54:54;102691.91;;;20.82;49.39
8101;BME280;4093;53.470;9.832;2023-05-19T08:57:26;102673.13;;;20.65;48.30
8101;BME280;4093;53.470;9.832;2023-05-19T08:59:55;102683.94;;;20.85;47.95
8101;BME280;4093;53.470;9.832;2023-05-19T09:02:24;102682.94;;;20.89;48.50
8101;BME280;4093;53.470;9.832;2023-05-19T09:04:54;102672.28;;;19.61;50.48
8101;BME280;4093;53.470;9.832;2023-05-19T09:07:25;102685.38;;;18.39;52.57
8101;BME280;4093;53.470;9.832;2023-05-19T09:09:53;102689.97;;;19.14;52.29
8101;BME280;4093;53.470;9.832;2023-05-19T09:12:21;102691.44;;;20.35;49.78
8101;BME280;4093;53.470;9.832;2023-05-19T09:14:49;102676.84;;;20.25;48.63
8101;BME280;4093;53.470;9.832;2023-05-19T09:17:17;102681.91;;;18.83;51.60
8101;BME280;4093;53.470;9.832;2023-05-19T09:19:45;102691.63;;;20.29;50.85
8101;BME280;4093;53.470;9.832;2023-05-19T09:22:15;102676.72;;;19.59;50.08
8101;BME280;4093;53.470;9.832;2023-05-19T09:24:46;102681.81;;;20.01;50.50
8101;BME280;4093;53.470;9.832;2023-05-19T09:27:14;102678.00;;;19.43;49.91
8101;BME280;4093;53.470;9.832;2023-05-19T09:29:47;102667.91;;;19.62;49.46
8101;BME280;4093;53.470;9.832;2023-05-19T09:32:23;102667.88;;;20.32;48.51
8101;BME280;4093;53.470;9.832;2023-05-19T09:34:52;102667.66;;;20.72;48.69
8101;BME280;4093;53.470;9.832;2023-05-19T09:37:21;102664.31;;;19.29;50.42
8101;BME280;4093;53.470;9.832;2023-05-19T09:39:52;102664.94;;;19.40;49.92
8101;BME280;4093;53.470;9.832;2023-05-19T09:42:23;102677.75;;;19.90;49.53
8101;BME280;4093;53.470;9.832;2023-05-19T09:44:58;102672.00;;;19.74;48.60
8101;BME280;4093;53.470;9.832;2023-05-19T09:47:26;102663.81;;;19.50;49.40
8101;BME280;4093;53.470;9.832;2023-05-19T09:49:55;102664.44;;;19.23;49.80
8101;BME280;4093;53.470;9.832;2023-05-19T09:52:24;102669.75;;;19.94;49.72
8101;BME280;4093;53.470;9.832;2023-05-19T09:54:55;102652.41;;;20.54;47.24
8101;BME280;4093;53.470;9.832;2023-05-19T09:57:24;102649.84;;;20.51;48.38
8101;BME280;4093;53.470;9.832;2023-05-19T09:59:53;102643.66;;;20.21;49.75
8101;BME280;4093;53.470;9.832;2023-05-19T10:02:23;102614.88;;;19.83;48.96
8101;BME280;4093;53.470;9.832;2023-05-19T10:04:53;102655.25;;;20.45;48.33
8101;BME280;4093;53.470;9.832;2023-05-19T10:07:22;102635.69;;;19.91;48.93
8101;BME280;4093;53.470;9.832;2023-05-19T10:09:51;102655.16;;;19.84;49.14
8101;BME280;4093;53.470;9.832;2023-05-19T10:12:25;102626.13;;;19.88;47.63
8101;BME280;4093;53.470;9.832;2023-05-19T10:14:53;102623.13;;;19.70;48.13
8101;BME280;4093;53.470;9.832;2023-05-19T10:17:23;102632.19;;;20.86;46.34
8101;BME280;4093;53.470;9.832;2023-05-19T10:19:51;102615.75;;;19.84;47.28
8101;BME280;4093;53.470;9.832;2023-05-19T10:22:20;102619.72;;;19.64;48.00
8101;BME280;4093;53.470;9.832;2023-05-19T10:24:47;102622.06;;;19.41;47.64
8101;BME280;4093;53.470;9.832;2023-05-19T10:27:16;102619.31;;;19.81;47.22
8101;BME280;4093;53.470;9.832;2023-05-19T10:29:48;102609.50;;;19.52;47.76
8101;BME280;4093;53.470;9.832;2023-05-19T10:32:19;102620.75;;;20.26;47.89
8101;BME280;4093;53.470;9.832;2023-05-19T10:35:11;102612.63;;;20.35;46.05
8101;BME280;4093;53.470;9.832;2023-05-19T10:37:45;102598.34;;;19.80;45.90
8101;BME280;4093;53.470;9.832;2023-05-19T10:40:20;102610.44;;;20.49;45.80
8101;BME280;4093;53.470;9.832;2023-05-19T10:43:00;102600.75;;;20.53;45.53
8101;BME280;4093;53.470;9.832;2023-05-19T10:45:33;102616.03;;;19.37;47.57
8101;BME280;4093;53.470;9.832;2023-05-19T10:48:03;102603.84;;;19.33;46.80
8101;BME280;4093;53.470;9.832;2023-05-19T10:50:34;102621.19;;;19.78;46.72
8101;BME280;4093;53.470;9.832;2023-05-19T10:53:03;102623.63;;;19.48;47.96
8101;BME280;4093;53.470;9.832;2023-05-19T10:55:44;102591.25;;;19.83;46.48
8101;BME280;4093;53.470;9.832;2023-05-19T10:58:12;102618.47;;;21.04;45.06
8101;BME280;4093;53.470;9.832;2023-05-19T11:00:42;102604.66;;;20.38;45.57
8101;BME280;4093;53.470;9.832;2023-05-19T11:03:13;102596.69;;;20.71;44.97
8101;BME280;4093;53.470;9.832;2023-05-19T11:05:41;102612.69;;;20.93;45.27
8101;BME280;4093;53.470;9.832;2023-05-19T11:08:11;102590.34;;;21.34;44.45
8101;BME280;4093;53.470;9.832;2023-05-19T11:10:42;102597.16;;;21.41;43.58
8101;BME280;4093;53.470;9.832;2023-05-19T11:13:18;102577.97;;;21.10;44.27
8101;BME280;4093;53.470;9.832;2023-05-19T11:15:49;102590.06;;;19.95;45.04
8101;BME280;4093;53.470;9.832;2023-05-19T11:18:18;102584.00;;;19.93;45.54
8101;BME280;4093;53.470;9.832;2023-05-19T11:20:54;102575.47;;;20.47;44.96
8101;BME280;4093;53.470;9.832;2023-05-19T11:23:24;102579.47;;;19.98;45.86
8101;BME280;4093;53.470;9.832;2023-05-19T11:25:52;102587.63;;;20.51;44.60
8101;BME280;4093;53.470;9.832;2023-05-19T11:28:21;102590.16;;;19.92;45.31
8101;BME280;4093;53.470;9.832;2023-05-19T11:30:54;102564.78;;;19.23;47.17
8101;BME280;4093;53.470;9.832;2023-05-19T11:33:23;102583.97;;;20.57;44.78
8101;BME280;4093;53.470;9.832;2023-05-19T11:35:53;102554.19;;;21.13;43.04
8101;BME280;4093;53.470;9.832;2023-05-19T11:38:23;102570.13;;;21.35;43.73
8101;BME280;4093;53.470;9.832;2023-05-19T11:40:51;102577.22;;;20.78;45.15
8101;BME280;4093;53.470;9.832;2023-05-19T11:43:21;102571.31;;;21.53;43.38
8101;BME280;4093;53.470;9.832;2023-05-19T11:45:49;102569.63;;;20.67;42.39
8101;BME280;4093;53.470;9.832;2023-05-19T11:48:21;102562.22;;;20.21;42.23
8101;BME280;4093;53.470;9.832;2023-05-19T11:50:49;102569.59;;;21.25;41.42
8101;BME280;4093;53.470;9.832;2023-05-19T11:53:17;102566.91;;;19.77;44.71
8101;BME280;4093;53.470;9.832;2023-05-19T11:55:46;102572.38;;;20.92;41.59
8101;BME280;4093;53.470;9.832;2023-05-19T11:58:15;102559.78;;;21.57;37.56
8101;BME280;4093;53.470;9.832;2023-05-19T12:00:43;102550.22;;;21.54;38.06
8101;BME280;4093;53.470;9.832;2023-05-19T12:03:13;102561.50;;;22.77;38.31
8101;BME280;4093;53.470;9.832;2023-05-19T12:05:46;102555.06;;;21.13;41.21
8101;BME280;4093;53.470;9.832;2023-05-19T12:08:15;102556.09;;;20.20;42.50
8101;BME280;4093;53.470;9.832;2023-05-19T12:10:46;102565.69;;;21.63;41.33
8101;BME280;4093;53.470;9.832;2023-05-19T12:13:14;102554.09;;;21.69;40.80
8101;BME280;4093;53.470;9.832;2023-05-19T12:15:42;102555.25;;;22.57;41.00
8101;BME280;4093;53.470;9.832;2023-05-19T12:18:09;102540.34;;;21.34;41.10
8101;BME280;4093;53.470;9.832;2023-05-19T12:20:37;102561.81;;;21.99;40.87
8101;BME280;4093;53.470;9.832;2023-05-19T12:23:07;102538.59;;;21.60;41.68
8101;BME280;4093;53.470;9.832;2023-05-19T12:25:35;102549.66;;;21.44;42.13
8101;BME280;4093;53.470;9.832;2023-05-19T12:28:04;102532.44;;;21.34;41.37
8101;BME280;4093;53.470;9.832;2023-05-19T12:30:31;102541.84;;;20.87;42.72
8101;BME280;4093;53.470;9.832;2023-05-19T12:33:01;102548.53;;;21.25;41.78
8101;BME280;4093;53.470;9.832;2023-05-19T12:35:30;102540.69;;;21.50;41.47
8101;BME280;4093;53.470;9.832;2023-05-19T12:38:01;102537.31;;;22.44;40.08
8101;BME280;4093;53.470;9.832;2023-05-19T12:40:32;102528.44;;;21.22;41.23
8101;BME280;4093;53.470;9.832;2023-05-19T12:43:01;102524.53;;;20.81;41.53
8101;BME280;4093;53.470;9.832;2023-05-19T12:45:33;102530.09;;;20.11;42.69
8101;BME280;4093;53.470;9.832;2023-05-19T12:48:02;102533.25;;;21.10;41.24
8101;BME280;4093;53.470;9.832;2023-05-19T12:50:30;102520.56;;;21.21;40.78
8101;BME280;4093;53.470;9.832;2023-05-19T12:52:58;102524.72;;;21.01;40.65
8101;BME280;4093;53.470;9.832;2023-05-19T12:55:26;102517.19;;;21.17;40.56
8101;BME280;4093;53.470;9.832;2023-05-19T12:57:56;102533.38;;;22.32;39.54
8101;BME280;4093;53.470;9.832;2023-05-19T13:00:24;102528.91;;;21.85;40.82
8101;BME280;4093;53.470;9.832;2023-05-19T13:02:57;102522.81;;;21.33;43.05
8101;BME280;4093;53.470;9.832;2023-05-19T13:05:26;102530.81;;;21.30;42.88
8101;BME280;4093;53.470;9.832;2023-05-19T13:07:55;102525.31;;;20.55;43.42
8101;BME280;4093;53.470;9.832;2023-05-19T13:10:24;102535.97;;;20.49;44.26
8101;BME280;4093;53.470;9.832;2023-05-19T13:12:55;102535.25;;;21.55;41.99
8101;BME280;4093;53.470;9.832;2023-05-19T13:15:23;102542.53;;;21.97;42.62
8101;BME280;4093;53.470;9.832;2023-05-19T13:17:53;102516.84;;;22.28;40.12
8101;BME280;4093;53.470;9.832;2023-05-19T13:20:20;102523.44;;;21.41;41.63
8101;BME280;4093;53.470;9.832;2023-05-19T13:22:50;102522.50;;;20.31;43.55
8101;BME280;4093;53.470;9.832;2023-05-19T13:25:18;102522.88;;;22.30;41.49